createdAt,value
2018-11-02T00:01:12.560Z,7.20
2018-11-02T00:03:40.911Z,7.30
2018-11-02T00:06:09.197Z,7.30
2018-11-02T00:08:37.490Z,7.30
2018-11-02T00:11:05.794Z,7.30
2018-11-02T00:13:34.093Z,7.20
2018-11-02T00:16:02.364Z,7.30
2018-11-02T00:18:30.629Z,7.40
2018-11-02T00:20:58.903Z,7.50
2018-11-02T00:23:27.209Z,7.50
2018-11-02T00:25:55.444Z,7.60
2018-11-02T00:28:24.601Z,7.50
2018-11-02T00:30:52.886Z,7.50
2018-11-02T00:33:21.142Z,7.50
2018-11-02T00:35:49.414Z,7.50
2018-11-02T00:38:17.700Z,7.50
2018-11-02T00:40:45.988Z,7.60
2018-11-02T00:43:14.327Z,7.60
2018-11-02T00:45:42.590Z,7.60
2018-11-02T00:48:10.905Z,7.60
2018-11-02T00:50:39.192Z,7.70
2018-11-02T00:53:07.515Z,7.60
2018-11-02T00:55:35.799Z,7.60
2018-11-02T00:58:04.176Z,7.50
2018-11-02T01:00:37.063Z,7.50
2018-11-02T01:03:05.529Z,7.50
2018-11-02T01:05:33.843Z,7.50
2018-11-02T01:08:02.422Z,7.50
2018-11-02T01:10:30.718Z,7.50
2018-11-02T01:12:59.348Z,7.50
2018-11-02T01:15:27.617Z,7.40
2018-11-02T01:17:55.836Z,7.40
2018-11-02T01:20:24.095Z,7.40
2018-11-02T01:22:52.372Z,7.30
2018-11-02T01:25:20.647Z,7.40
2018-11-02T01:27:48.924Z,7.30
2018-11-02T01:30:17.167Z,7.10
2018-11-02T01:32:45.436Z,6.90
2018-11-02T01:35:13.683Z,6.60
2018-11-02T01:37:41.906Z,6.50
2018-11-02T01:40:10.463Z,6.40
2018-11-02T01:42:38.696Z,6.20
2018-11-02T01:45:06.896Z,6.20
2018-11-02T01:47:35.530Z,6.20
2018-11-02T01:50:04.119Z,6.20
2018-11-02T01:52:32.372Z,6.10
2018-11-02T01:55:00.649Z,5.90
2018-11-02T01:57:28.907Z,5.90
2018-11-02T01:59:57.129Z,5.90
2018-11-02T02:02:25.359Z,5.90
2018-11-02T02:04:54.048Z,5.90
2018-11-02T02:07:22.333Z,5.90
2018-11-02T02:09:50.564Z,5.90
2018-11-02T02:12:18.809Z,6.20
2018-11-02T02:14:47.256Z,6.40
2018-11-02T02:17:15.480Z,6.50
2018-11-02T02:19:43.727Z,6.60
2018-11-02T02:22:12.328Z,6.70
2018-11-02T02:24:40.616Z,6.60
2018-11-02T02:27:08.844Z,6.40
2018-11-02T02:29:37.104Z,6.50
2018-11-02T02:32:05.461Z,6.50
2018-11-02T02:34:33.688Z,6.60
2018-11-02T02:37:01.990Z,6.70
2018-11-02T02:39:30.266Z,6.70
2018-11-02T02:41:58.467Z,6.70
2018-11-02T02:44:26.715Z,6.70
2018-11-02T02:46:54.939Z,6.80
2018-11-02T02:49:23.151Z,6.80
2018-11-02T02:51:51.436Z,6.80
2018-11-02T02:54:19.635Z,6.90
2018-11-02T02:56:47.874Z,6.90
2018-11-02T02:59:16.127Z,7.00
2018-11-02T03:01:44.447Z,7.00
2018-11-02T03:04:12.707Z,7.00
2018-11-02T03:06:40.971Z,7.00
2018-11-02T03:09:09.385Z,7.10
2018-11-02T03:11:37.827Z,7.10
2018-11-02T03:14:06.112Z,7.10
2018-11-02T03:16:34.368Z,7.20
2018-11-02T03:19:02.665Z,7.20
2018-11-02T03:21:30.888Z,7.20
2018-11-02T03:23:59.156Z,7.30
2018-11-02T03:26:27.743Z,7.40
2018-11-02T03:28:55.993Z,7.40
2018-11-02T03:31:24.279Z,7.50
2018-11-02T03:33:52.747Z,7.50
2018-11-02T03:36:20.989Z,7.60
2018-11-02T03:38:49.250Z,7.60
2018-11-02T03:41:17.468Z,7.60
2018-11-02T03:43:45.723Z,7.50
2018-11-02T03:46:13.927Z,7.40
2018-11-02T03:48:42.189Z,7.40
2018-11-02T03:51:10.432Z,7.40
2018-11-02T03:53:38.703Z,7.40
2018-11-02T03:56:07.001Z,7.40
2018-11-02T03:58:35.584Z,7.30
2018-11-02T04:01:03.846Z,7.30
2018-11-02T04:03:32.119Z,7.30
2018-11-02T04:06:00.376Z,7.30
2018-11-02T04:08:28.656Z,7.20
2018-11-02T04:10:56.924Z,7.20
2018-11-02T04:13:25.172Z,7.00
2018-11-02T04:15:53.404Z,6.90
2018-11-02T04:18:21.679Z,6.90
2018-11-02T04:20:49.952Z,6.90
2018-11-02T04:23:18.191Z,7.00
2018-11-02T04:25:46.457Z,7.00
2018-11-02T04:28:14.707Z,7.00
2018-11-02T04:30:42.985Z,7.00
2018-11-02T04:33:11.391Z,7.00
2018-11-02T04:35:39.708Z,6.90
2018-11-02T04:38:08.321Z,6.80
2018-11-02T04:40:36.587Z,6.70
2018-11-02T04:43:04.883Z,6.50
2018-11-02T04:45:38.834Z,6.60
2018-11-02T04:48:08.355Z,6.50
2018-11-02T04:50:36.647Z,6.50
2018-11-02T04:53:05.177Z,6.40
2018-11-02T04:55:33.412Z,6.40
2018-11-02T04:58:01.971Z,6.40
2018-11-02T05:00:30.697Z,6.30
2018-11-02T05:02:58.970Z,6.10
2018-11-02T05:05:27.967Z,6.00
2018-11-02T05:07:56.258Z,6.00
2018-11-02T05:10:24.845Z,6.00
2018-11-02T05:12:53.092Z,5.90
2018-11-02T05:15:21.425Z,5.90
2018-11-02T05:17:49.707Z,5.80
2018-11-02T05:20:17.959Z,5.80
2018-11-02T05:22:46.217Z,5.70
2018-11-02T05:25:14.474Z,5.60
2018-11-02T05:27:42.711Z,5.60
2018-11-02T05:30:11.416Z,5.50
2018-11-02T05:32:39.904Z,5.40
2018-11-02T05:35:08.216Z,5.60
2018-11-02T05:37:37.544Z,5.70
2018-11-02T05:40:06.744Z,5.70
2018-11-02T05:42:35.048Z,5.80
2018-11-02T05:45:03.446Z,5.80
2018-11-02T05:47:31.720Z,5.80
2018-11-02T05:49:59.963Z,5.80
2018-11-02T05:52:28.252Z,5.90
2018-11-02T05:54:56.566Z,5.90
2018-11-02T05:57:24.794Z,5.80
2018-11-02T05:59:53.068Z,5.80
2018-11-02T06:02:21.348Z,5.70
2018-11-02T06:04:49.700Z,5.70
2018-11-02T06:07:18.019Z,5.50
2018-11-02T06:09:46.331Z,5.40
2018-11-02T06:12:14.608Z,5.20
2018-11-02T06:14:42.911Z,5.20
2018-11-02T06:17:11.157Z,5.10
2018-11-02T06:19:39.401Z,5.20
2018-11-02T06:22:07.707Z,5.20
2018-11-02T06:24:35.991Z,5.20
2018-11-02T06:27:04.319Z,5.10
2018-11-02T06:29:32.623Z,5.10
2018-11-02T06:32:00.894Z,5.20
2018-11-02T06:34:29.173Z,5.10
2018-11-02T06:36:57.463Z,5.10
2018-11-02T06:39:26.174Z,5.10
2018-11-02T06:41:54.479Z,5.10
2018-11-02T06:44:22.765Z,5.10
2018-11-02T06:46:51.015Z,5.00
2018-11-02T06:49:20.431Z,5.00
2018-11-02T06:51:48.741Z,4.90
2018-11-02T06:54:17.019Z,4.80
2018-11-02T06:56:45.326Z,4.80
2018-11-02T06:59:13.745Z,4.70
2018-11-02T07:01:41.939Z,4.70
2018-11-02T07:04:10.168Z,4.70
2018-11-02T07:06:38.429Z,4.70
2018-11-02T07:09:08.459Z,4.80
2018-11-02T07:11:36.761Z,4.80
2018-11-02T07:14:05.213Z,4.80
2018-11-02T07:16:33.492Z,4.90
2018-11-02T07:19:01.760Z,5.00
2018-11-02T07:21:30.055Z,5.10
2018-11-02T07:23:58.334Z,5.20
2018-11-02T07:26:26.595Z,5.30
2018-11-02T07:28:54.873Z,5.30
2018-11-02T07:31:23.386Z,5.30
2018-11-02T07:33:51.653Z,5.40
2018-11-02T07:36:19.941Z,5.50
2018-11-02T07:38:48.227Z,5.40
2018-11-02T07:41:16.505Z,5.50
2018-11-02T07:43:44.768Z,5.60
2018-11-02T07:46:13.447Z,5.70
2018-11-02T07:48:41.761Z,5.80
2018-11-02T07:51:10.077Z,5.80
2018-11-02T07:53:38.333Z,5.80
2018-11-02T07:56:06.614Z,5.90
2018-11-02T07:58:34.942Z,5.90
2018-11-02T08:01:03.223Z,6.00
2018-11-02T08:03:31.553Z,6.10
2018-11-02T08:05:59.871Z,6.10
2018-11-02T08:08:28.329Z,6.30
2018-11-02T08:10:56.647Z,6.30
2018-11-02T08:13:24.911Z,6.30
2018-11-02T08:15:53.191Z,6.40
2018-11-02T08:18:21.500Z,6.40
2018-11-02T08:20:49.839Z,6.40
2018-11-02T08:23:18.136Z,6.50
2018-11-02T08:25:46.644Z,6.60
2018-11-02T08:28:14.927Z,6.70
2018-11-02T08:30:43.213Z,6.80
2018-11-02T08:33:11.519Z,6.80
2018-11-02T08:35:39.788Z,6.90
2018-11-02T08:38:08.388Z,7.00
2018-11-02T08:40:37.047Z,7.00
2018-11-02T08:43:05.748Z,7.10
2018-11-02T08:45:34.019Z,7.20
2018-11-02T08:48:02.291Z,7.30
2018-11-02T08:50:30.578Z,7.40
2018-11-02T08:52:58.858Z,7.50
2018-11-02T08:55:27.414Z,7.70
2018-11-02T08:57:55.715Z,7.80
2018-11-02T09:00:23.963Z,7.80
2018-11-02T09:02:52.212Z,7.90
2018-11-02T09:05:20.500Z,8.10
2018-11-02T09:07:48.795Z,8.10
2018-11-02T09:10:17.088Z,8.20
2018-11-02T09:12:45.370Z,8.10
2018-11-02T09:15:13.893Z,8.20
2018-11-02T09:17:42.188Z,8.30
2018-11-02T09:20:10.460Z,8.20
2018-11-02T09:22:38.789Z,8.20
2018-11-02T09:25:08.263Z,8.30
2018-11-02T09:27:36.736Z,8.40
2018-11-02T09:30:07.865Z,8.50
2018-11-02T09:32:36.152Z,8.60
2018-11-02T09:35:05.278Z,8.70
2018-11-02T09:37:33.612Z,8.90
2018-11-02T09:40:01.920Z,8.70
2018-11-02T09:42:30.341Z,8.60
2018-11-02T09:44:58.712Z,8.70
2018-11-02T09:47:27.311Z,8.60
2018-11-02T09:49:55.717Z,9.10
2018-11-02T09:52:24.096Z,8.90
2018-11-02T09:54:52.435Z,9.00
2018-11-02T09:57:20.763Z,9.00
2018-11-02T09:59:49.212Z,9.20
2018-11-02T10:02:17.710Z,9.10
2018-11-02T10:04:45.882Z,9.10
2018-11-02T10:07:14.112Z,9.10
2018-11-02T10:09:42.478Z,9.10
2018-11-02T10:12:10.800Z,9.50
2018-11-02T10:14:39.121Z,9.40
2018-11-02T10:17:07.499Z,9.40
2018-11-02T10:19:35.878Z,9.50
2018-11-02T10:22:04.266Z,9.50
2018-11-02T10:24:32.556Z,9.70
2018-11-02T10:27:00.932Z,9.60
2018-11-02T10:29:29.238Z,9.60
2018-11-02T10:31:57.556Z,9.70
2018-11-02T10:34:25.852Z,9.80
2018-11-02T10:36:54.576Z,9.70
2018-11-02T10:39:22.907Z,9.80
2018-11-02T10:41:54.183Z,9.90
2018-11-02T10:44:27.361Z,9.90
2018-11-02T10:46:55.656Z,9.90
2018-11-02T10:49:24.065Z,10.00
2018-11-02T10:51:52.349Z,10.20
2018-11-02T10:54:20.759Z,10.20
2018-11-02T10:56:49.028Z,10.20
2018-11-02T10:59:19.360Z,10.20
2018-11-02T11:01:51.528Z,10.40
2018-11-02T11:04:20.387Z,10.50
2018-11-02T11:06:48.762Z,11.00
2018-11-02T11:09:17.418Z,11.00
2018-11-02T11:11:45.866Z,10.90
2018-11-02T11:14:14.017Z,10.90
2018-11-02T11:16:42.316Z,11.00
2018-11-02T11:19:11.195Z,11.10
2018-11-02T11:21:40.591Z,11.20
2018-11-02T11:24:08.916Z,11.30
2018-11-02T11:26:37.847Z,11.30
2018-11-02T11:29:06.615Z,11.40
2018-11-02T11:31:35.147Z,11.50
2018-11-02T11:34:03.777Z,11.60
2018-11-02T11:36:32.105Z,11.70
2018-11-02T11:39:00.587Z,11.70
2018-11-02T11:41:28.919Z,11.80
2018-11-02T11:43:57.290Z,11.80
2018-11-02T11:46:25.678Z,11.90
2018-11-02T11:48:54.041Z,12.00
2018-11-02T11:51:22.291Z,12.20
2018-11-02T11:53:50.702Z,12.20
2018-11-02T11:56:19.011Z,12.30
2018-11-02T11:58:47.339Z,12.20
2018-11-02T12:01:15.684Z,12.20
2018-11-02T12:03:44.255Z,12.20
2018-11-02T12:06:12.577Z,12.30
2018-11-02T12:08:40.865Z,12.30
2018-11-02T12:11:09.152Z,12.30
2018-11-02T12:13:37.542Z,12.30
2018-11-02T12:16:06.130Z,12.30
2018-11-02T12:18:34.257Z,12.30
2018-11-02T12:21:02.544Z,12.40
2018-11-02T12:23:30.874Z,12.40
2018-11-02T12:25:59.185Z,12.60
2018-11-02T12:28:27.564Z,12.60
2018-11-02T12:30:55.824Z,12.50
2018-11-02T12:33:24.060Z,12.50
2018-11-02T12:35:52.332Z,12.50
2018-11-02T12:38:20.684Z,12.50
2018-11-02T12:40:49.021Z,12.40
2018-11-02T12:43:17.404Z,12.60
2018-11-02T12:45:45.610Z,12.60
2018-11-02T12:48:13.926Z,12.50
2018-11-02T12:50:42.127Z,12.60
2018-11-02T12:53:10.452Z,12.70
2018-11-02T12:55:38.748Z,12.60
2018-11-02T12:58:09.077Z,12.70
2018-11-02T13:00:37.450Z,12.80
2018-11-02T13:03:05.770Z,12.80
2018-11-02T13:05:34.047Z,12.70
2018-11-02T13:08:02.323Z,12.80
2018-11-02T13:10:30.609Z,12.70
2018-11-02T13:12:58.885Z,12.70
2018-11-02T13:15:27.196Z,12.90
2018-11-02T13:17:55.734Z,13.00
2018-11-02T13:20:24.051Z,13.00
2018-11-02T13:22:52.286Z,13.00
2018-11-02T13:25:21.593Z,13.00
2018-11-02T13:27:50.853Z,13.10
2018-11-02T13:30:19.711Z,13.10
2018-11-02T13:32:48.337Z,13.00
2018-11-02T13:35:17.840Z,12.70
2018-11-02T13:37:46.772Z,12.80
2018-11-02T13:40:16.289Z,12.90
2018-11-02T13:42:44.721Z,12.90
2018-11-02T13:45:14.203Z,12.90
2018-11-02T13:47:43.072Z,12.80
2018-11-02T13:50:12.220Z,12.80
2018-11-02T13:52:40.890Z,12.80
2018-11-02T13:55:09.865Z,12.90
2018-11-02T13:57:38.387Z,13.10
2018-11-02T14:00:08.515Z,13.20
2018-11-02T14:02:36.853Z,13.20
2018-11-02T14:05:06.146Z,13.20
2018-11-02T14:07:34.727Z,13.30
2018-11-02T14:10:03.090Z,13.40
2018-11-02T14:12:31.415Z,13.20
2018-11-02T14:14:59.920Z,13.20
2018-11-02T14:17:28.492Z,13.20
2018-11-02T14:19:56.877Z,13.20
2018-11-02T14:22:25.497Z,13.10
2018-11-02T14:24:53.769Z,12.90
2018-11-02T14:27:22.077Z,12.90
2018-11-02T14:29:50.365Z,12.80
2018-11-02T14:32:18.896Z,12.70
2018-11-02T14:34:47.580Z,12.70
2018-11-02T14:37:16.518Z,12.70
2018-11-02T14:39:44.771Z,12.60
2018-11-02T14:42:13.141Z,12.60
2018-11-02T14:44:41.410Z,12.60
2018-11-02T14:47:09.667Z,12.60
2018-11-02T14:49:37.967Z,12.50
2018-11-02T14:52:06.311Z,12.50
2018-11-02T14:54:34.630Z,12.50
2018-11-02T14:57:02.956Z,12.50
2018-11-02T14:59:31.522Z,12.40
2018-11-02T15:02:00.544Z,12.40
2018-11-02T15:04:28.834Z,12.40
2018-11-02T15:06:57.116Z,12.30
2018-11-02T15:09:25.413Z,12.30
2018-11-02T15:11:53.681Z,12.30
2018-11-02T15:14:22.319Z,12.30
2018-11-02T15:16:50.596Z,12.30
2018-11-02T15:19:18.903Z,12.20
2018-11-02T15:21:47.541Z,12.20
2018-11-02T15:24:15.880Z,12.20
2018-11-02T15:26:44.188Z,12.10
2018-11-02T15:29:12.527Z,12.10
2018-11-02T15:31:40.801Z,12.10
2018-11-02T15:34:09.136Z,12.00
2018-11-02T15:36:37.423Z,12.00
2018-11-02T15:39:08.587Z,12.00
2018-11-02T15:41:36.852Z,12.00
2018-11-02T15:44:05.440Z,11.90
2018-11-02T15:46:33.650Z,11.90
2018-11-02T15:49:01.928Z,11.90
2018-11-02T15:51:30.223Z,11.90
2018-11-02T15:53:58.475Z,11.80
2018-11-02T15:56:26.768Z,11.80
2018-11-02T15:58:55.061Z,11.70
2018-11-02T16:01:23.372Z,11.70
2018-11-02T16:03:51.990Z,11.70
2018-11-02T16:06:20.319Z,11.70
2018-11-02T16:08:48.605Z,11.60
2018-11-02T16:11:16.876Z,11.60
2018-11-02T16:13:45.162Z,11.50
2018-11-02T16:16:13.420Z,11.50
2018-11-02T16:18:41.716Z,11.40
2018-11-02T16:21:10.019Z,11.40
2018-11-02T16:23:38.494Z,11.40
2018-11-02T16:26:06.796Z,11.40
2018-11-02T16:28:35.487Z,11.40
2018-11-02T16:31:03.819Z,11.40
2018-11-02T16:33:32.068Z,11.30
2018-11-02T16:36:00.365Z,11.30
2018-11-02T16:38:28.657Z,11.20
2018-11-02T16:40:56.942Z,11.20
2018-11-02T16:43:25.304Z,11.20
2018-11-02T16:45:54.006Z,11.20
2018-11-02T16:48:22.270Z,11.20
2018-11-02T16:50:50.555Z,11.20
2018-11-02T16:53:18.831Z,11.20
2018-11-02T16:55:47.087Z,11.10
2018-11-02T16:58:15.390Z,11.10
2018-11-02T17:00:43.660Z,11.10
2018-11-02T17:03:11.912Z,11.00
2018-11-02T17:05:40.223Z,11.00
2018-11-02T17:08:08.519Z,11.00
2018-11-02T17:10:37.191Z,11.00
2018-11-02T17:13:05.857Z,11.00
2018-11-02T17:15:34.417Z,10.90
2018-11-02T17:18:02.736Z,10.90
2018-11-02T17:20:30.960Z,10.90
2018-11-02T17:22:59.231Z,10.90
2018-11-02T17:25:27.531Z,10.90
2018-11-02T17:27:55.819Z,10.80
2018-11-02T17:30:24.093Z,10.80
2018-11-02T17:32:52.355Z,10.80
2018-11-02T17:35:20.611Z,10.80
2018-11-02T17:37:48.908Z,10.90
2018-11-02T17:40:17.169Z,10.80
2018-11-02T17:42:45.747Z,10.80
2018-11-02T17:45:14.347Z,10.70
2018-11-02T17:47:43.120Z,10.60
2018-11-02T17:50:12.354Z,10.60
2018-11-02T17:52:40.653Z,10.60
2018-11-02T17:55:08.921Z,10.60
2018-11-02T17:57:37.202Z,10.50
2018-11-02T18:00:07.089Z,10.50
2018-11-02T18:02:35.400Z,10.50
2018-11-02T18:05:03.825Z,10.40
2018-11-02T18:07:32.087Z,10.50
2018-11-02T18:10:00.392Z,10.60
2018-11-02T18:12:28.838Z,10.60
2018-11-02T18:14:57.156Z,10.60
2018-11-02T18:17:25.449Z,10.50
2018-11-02T18:19:53.711Z,10.40
2018-11-02T18:22:22.166Z,10.40
2018-11-02T18:24:50.377Z,10.30
2018-11-02T18:27:18.681Z,10.30
2018-11-02T18:29:46.991Z,10.30
2018-11-02T18:32:15.290Z,10.30
2018-11-02T18:34:43.909Z,10.30
2018-11-02T18:37:12.186Z,10.20
2018-11-02T18:39:47.182Z,10.20
2018-11-02T18:42:15.534Z,10.20
2018-11-02T18:44:43.771Z,10.20
2018-11-02T18:47:12.142Z,10.10
2018-11-02T18:49:40.495Z,10.00
2018-11-02T18:52:09.177Z,10.00
2018-11-02T18:54:37.803Z,10.10
2018-11-02T18:57:06.671Z,10.10
2018-11-02T18:59:34.937Z,10.20
2018-11-02T19:02:03.291Z,10.10
2018-11-02T19:04:31.952Z,10.10
2018-11-02T19:07:00.239Z,10.00
2018-11-02T19:09:28.522Z,10.00
2018-11-02T19:11:57.102Z,9.90
2018-11-02T19:14:25.375Z,9.90
2018-11-02T19:16:53.683Z,9.70
2018-11-02T19:19:21.999Z,9.70
2018-11-02T19:21:50.287Z,9.80
2018-11-02T19:24:18.797Z,9.50
2018-11-02T19:26:47.119Z,9.50
2018-11-02T19:29:15.461Z,9.50
2018-11-02T19:31:43.772Z,9.60
2018-11-02T19:34:12.550Z,9.60
2018-11-02T19:36:41.164Z,9.70
2018-11-02T19:39:10.296Z,9.70
2018-11-02T19:41:38.592Z,9.80
2018-11-02T19:44:06.954Z,9.80
2018-11-02T19:46:35.607Z,9.80
2018-11-02T19:49:04.268Z,9.70
2018-11-02T19:51:33.245Z,9.70
2018-11-02T19:54:01.695Z,9.70
2018-11-02T19:56:30.251Z,9.80
2018-11-02T19:58:58.832Z,9.70
2018-11-02T20:01:27.147Z,9.60
2018-11-02T20:03:55.424Z,9.60
2018-11-02T20:06:23.761Z,9.60
2018-11-02T20:08:52.285Z,9.60
2018-11-02T20:11:20.609Z,9.60
2018-11-02T20:13:49.282Z,9.60
2018-11-02T20:16:17.581Z,9.60
2018-11-02T20:18:45.889Z,9.50
2018-11-02T20:21:14.168Z,9.60
2018-11-02T20:23:42.470Z,9.50
2018-11-02T20:26:10.985Z,9.50
2018-11-02T20:28:39.568Z,9.50
2018-11-02T20:31:08.097Z,9.50
2018-11-02T20:33:36.425Z,9.50
2018-11-02T20:36:04.873Z,9.40
2018-11-02T20:38:33.489Z,9.40
2018-11-02T20:41:01.767Z,9.40
2018-11-02T20:43:30.687Z,9.40
2018-11-02T20:45:58.976Z,9.40
2018-11-02T20:48:27.609Z,9.30
2018-11-02T20:50:55.904Z,9.40
2018-11-02T20:53:24.240Z,9.40
2018-11-02T20:55:52.535Z,9.30
2018-11-02T20:58:21.218Z,9.40
2018-11-02T21:00:49.511Z,9.40
2018-11-02T21:03:17.803Z,9.40
2018-11-02T21:05:46.176Z,9.40
2018-11-02T21:08:14.808Z,9.40
2018-11-02T21:10:42.902Z,9.30
2018-11-02T21:13:11.260Z,9.30
2018-11-02T21:15:39.793Z,9.30
2018-11-02T21:18:08.091Z,9.30
2018-11-02T21:20:37.143Z,9.30
2018-11-02T21:23:05.803Z,9.30
2018-11-02T21:25:34.108Z,9.30
2018-11-02T21:28:02.429Z,9.30
2018-11-02T21:30:30.711Z,9.30
2018-11-02T21:32:59.019Z,9.30
2018-11-02T21:35:27.293Z,9.30
2018-11-02T21:37:55.607Z,9.30
2018-11-02T21:40:24.967Z,9.30
2018-11-02T21:42:53.244Z,9.50
2018-11-02T21:45:22.672Z,9.50
2018-11-02T21:47:51.702Z,9.50
2018-11-02T21:50:20.184Z,9.50
2018-11-02T21:52:48.585Z,9.40
2018-11-02T21:55:16.767Z,9.40
2018-11-02T21:57:45.064Z,9.40
2018-11-02T22:00:15.902Z,9.50
2018-11-02T22:02:44.500Z,9.60
2018-11-02T22:05:13.197Z,9.60
2018-11-02T22:07:42.341Z,9.50
2018-11-02T22:10:11.669Z,9.40
2018-11-02T22:12:40.386Z,9.30
2018-11-02T22:15:09.275Z,9.30
2018-11-02T22:17:37.776Z,9.20
2018-11-02T22:20:07.672Z,9.20
2018-11-02T22:22:35.935Z,9.20
2018-11-02T22:25:04.384Z,9.20
2018-11-02T22:27:32.972Z,9.20
2018-11-02T22:30:01.216Z,9.20
2018-11-02T22:32:29.747Z,9.40
2018-11-02T22:34:58.440Z,9.40
2018-11-02T22:37:26.672Z,9.40
2018-11-02T22:39:55.919Z,9.40
2018-11-02T22:42:24.193Z,9.40
2018-11-02T22:44:52.453Z,9.40
2018-11-02T22:47:20.719Z,9.50
2018-11-02T22:49:49.002Z,9.50
2018-11-02T22:52:17.281Z,9.40
2018-11-02T22:54:45.661Z,9.40
2018-11-02T22:57:13.851Z,9.40
2018-11-02T22:59:42.272Z,9.40
2018-11-02T23:02:10.554Z,9.40
2018-11-02T23:04:38.910Z,9.40
2018-11-02T23:07:07.184Z,9.40
2018-11-02T23:09:35.472Z,9.40
2018-11-02T23:12:03.724Z,9.40
2018-11-02T23:14:31.997Z,9.40
2018-11-02T23:17:20.400Z,9.30
2018-11-02T23:19:48.689Z,9.30
2018-11-02T23:22:17.026Z,9.30
2018-11-02T23:24:45.350Z,9.30
2018-11-02T23:27:13.679Z,9.30
2018-11-02T23:29:42.076Z,9.30
2018-11-02T23:32:10.272Z,9.30
2018-11-02T23:34:38.518Z,9.30
2018-11-02T23:37:06.755Z,9.30
2018-11-02T23:39:35.028Z,9.20
2018-11-02T23:42:03.280Z,9.30
2018-11-02T23:44:31.533Z,9.20
2018-11-02T23:47:00.066Z,9.20
2018-11-02T23:49:28.569Z,9.20
2018-11-02T23:51:56.840Z,9.20
2018-11-02T23:54:25.080Z,9.20
2018-11-02T23:56:53.348Z,9.10
2018-11-02T23:59:21.627Z,9.00
